TIST/STT METAR and TAF weather

Enter ICAO airport designator
Station Type Date Time Source
TIST METAR 2020/01/24 02:53 UTC NOAA

TIST 240253Z 34012KT 10SM OVC034 24/22 A2992 RMK AO2 RAE07 SLP131 P0000 60026 T02440222 50012


Station Type Date Time Source
TIST Decoded METAR 2020/01/24 02:53 UTC NOAA

Charlotte Amalie St. Thomas, Cyril E. King Airport, Virgin Islands (TIST) 18-20N 064-59W
Jan 23, 2020 - 09:53 PM EST / 2020.01.24 0253 UTC
Wind: from the NNW (340 degrees) at 14 MPH (12 KT):0
Visibility: 10 mile(s):0
Sky conditions: overcast
Precipitation last hour: A trace
Temperature: 75.9 F (24.4 C)
Dew Point: 72.0 F (22.2 C)
Relative Humidity: 87%
Pressure (altimeter): 29.92 in. Hg (1013 hPa)
Pressure tendency: 0.04 inches (1.2 hPa) higher than three hours ago
ob: TIST 240253Z 34012KT 10SM OVC034 24/22 A2992 RMK AO2 RAE07 SLP131 P0000 60026 T02440222 50012
cycle: 3

Station Type Date Time Source
TIST TAF 2020/01/24 02:57 UTC NOAA

TAF
AMD TIST 240147Z 2402/2424 34010KT P6SM -SHRA VCSH SCT025 BKN050
TEMPO 2402/2404 VRB10KT 4SM -SHRA BKN025
FM241000 01010KT P6SM VCSH SCT025 BKN050

Example: see airport list